Search for airport 
image banner adimage banner ad
image banner ad

LRBANE - Banesti

Located in Banesti, Romania

ICAO - , IATA -

Data provided by Airmate  

General information

Coordinates: N45°4'6" E25°48'21"
Elevation is 1213 feet MSL.
 
View others Airports in (unassigned)

Operational data

Open for public use
Current time UTC:
Current local time:
Weather at : LROP - Bucuresti / Henri Coanda ( 59 km )
METAR: LROP 261200Z 14004KT 9999 -RA NSC 25/16 Q0997 NOSIG
TAF: TAF LROP 261100Z 2612/2712 09005KT CAVOK BECMG 2612/2614 15012KT SCT040CB TEMPO 2614/2617 15017G27KT 5000 TSRA BKN035CB BECMG 2617/2619 26012KT 5000 -SHRA BECMG 2620/2622 9999 NSW SCT010
View NOTAMs / SUP AIP / TFR affecting this airport [VIEW]
Communications frequencies: [VIEW]

Runways:

RWY identifierQFULength (ft)Width (ft)SurfaceLDA (ft)
0657°2067131GRASS
24237°2067131GRASS

Airport contact information

Address: Banesti Romania

Satellite view of LRBANE